Cottonwood, Texas
Current Conditions -  °F | °C
As of 7:55 AM on Monday 24 Nov 2014 (Local Time) from KCFD Reporting Station
Clear Clear  
Wind Chill: 46°   Ceiling: Unl
Heat Index: 46°   Visibility: 10mi
Dew Point: 38°   Wind: 3mph
Humidity: 75%   Direction: 310°NW
Pressure: 30.04"   Gusts: NA
Location:  30.9382°N, 96.0901°W
Report Text: KCFD 241355Z AUTO 31003KT 10SM CLR 08/04 A3004 RMK AO2 T00770035
Loading
Personal Weather Stations






























Interactive Weather Map New forecast layout! Learn more

10-Day Weather Forecast

Advertisements
Track Severe Weather on mobile